Time;durP1;ratioP1;P1;durP2;ratioP2;P2;SDS_P1;SDS_P2;PMS_P1;PMS_P2;Temp;Humidity;BMP_temperature;BMP_pressure;BME280_temperature;BME280_humidity;BME280_pressure;Samples;Min_cycle;Max_cycle;Signal;HPM_P1;HPM_P2
2021/01/07 00:01:45;;;;;;;;;;;;;;;27.38;27.71;100779.84;5119006;28;1182;-36
2021/01/07 00:04:11;;;;;;;;;;;;;;;27.61;27.71;100776.22;5118630;28;786;-36
2021/01/07 00:06:36;;;;;;;;;;;;;;;28.05;27.11;100779.13;5114944;28;937;-36
2021/01/07 00:09:01;;;;;;;;;;;;;;;27.54;27.65;100787.97;5098168;28;1949;-36
2021/01/07 00:11:26;;;;;;;;;;;;;;;27.30;28.14;100774.53;5098387;28;809;-37
2021/01/07 00:13:52;;;;;;;;;;;;;;;27.93;27.28;100759.00;5098156;28;937;-37
2021/01/07 00:16:17;;;;;;;;;;;;;;;27.59;27.41;100764.75;5098300;28;866;-36
2021/01/07 00:18:42;;;;;;;;;;;;;;;27.33;28.08;100763.34;5098479;28;767;-37
2021/01/07 00:21:08;;;;;;;;;;;;;;;27.74;27.66;100758.56;5097899;28;866;-37
2021/01/07 00:23:33;;;;;;;;;;;;;;;27.80;27.20;100759.66;5118314;28;982;-37
2021/01/07 00:25:58;;;;;;;;;;;;;;;27.35;28.02;100741.56;5118708;27;798;-36
2021/01/07 00:28:24;;;;;;;;;;;;;;;27.51;27.64;100730.56;5118066;28;2008;-36
2021/01/07 00:30:49;;;;;;;;;;;;;;;27.89;27.12;100731.53;5118657;28;771;-36
2021/01/07 00:33:15;;;;;;;;;;;;;;;27.39;27.75;100724.78;5118896;28;743;-37
2021/01/07 00:35:41;;;;;;;;;;;;;;;27.33;28.11;100733.63;5118025;28;807;-37
2021/01/07 00:38:06;;;;;;;;;;;;;;;27.87;27.33;100737.13;5118367;28;930;-33
2021/01/07 00:40:32;;;;;;;;;;;;;;;27.57;27.62;100738.97;5118469;28;798;-36
2021/01/07 00:42:57;;;;;;;;;;;;;;;27.45;27.63;100722.38;5117795;28;815;-37
2021/01/07 00:45:22;;;;;;;;;;;;;;;27.82;27.15;100726.03;5118711;28;766;-36
2021/01/07 00:47:48;;;;;;;;;;;;;;;27.58;27.44;100729.81;5118190;27;1961;-37
2021/01/07 00:50:13;;;;;;;;;;;;;;;27.32;27.95;100729.28;5117741;28;877;-36
2021/01/07 00:52:39;;;;;;;;;;;;;;;27.63;27.45;100722.84;5117666;28;969;-37
2021/01/07 00:55:04;;;;;;;;;;;;;;;27.99;26.74;100715.81;5118083;28;1103;-37
2021/01/07 00:57:30;;;;;;;;;;;;;;;27.50;27.61;100714.56;5117096;28;787;-36
2021/01/07 00:59:55;;;;;;;;;;;;;;;27.32;28.00;100720.31;5118375;28;779;-37
2021/01/07 01:02:20;;;;;;;;;;;;;;;27.92;27.34;100706.81;5117782;28;1197;-36
2021/01/07 01:04:46;;;;;;;;;;;;;;;27.51;27.52;100706.25;5117645;28;854;-36
2021/01/07 01:07:11;;;;;;;;;;;;;;;27.28;27.95;100700.13;5108466;28;1914;-36
2021/01/07 01:09:36;;;;;;;;;;;;;;;27.81;27.41;100699.19;5097351;28;764;-36
2021/01/07 01:12:01;;;;;;;;;;;;;;;27.63;27.38;100693.13;5097028;28;906;-36
2021/01/07 01:14:27;;;;;;;;;;;;;;;27.36;27.69;100690.03;5097480;28;808;-39
2021/01/07 01:16:53;;;;;;;;;;;;;;;27.66;27.34;100699.19;5097139;28;815;-38
2021/01/07 01:19:19;;;;;;;;;;;;;;;27.79;27.13;100703.94;5097038;28;955;-37
2021/01/07 01:21:44;;;;;;;;;;;;;;;27.35;27.99;100704.59;5101843;28;919;-36
2021/01/07 01:24:10;;;;;;;;;;;;;;;27.48;27.88;100698.53;5117416;28;850;-37
2021/01/07 01:26:35;;;;;;;;;;;;;;;27.94;27.17;100702.06;5117240;28;751;-37
2021/01/07 01:29:00;;;;;;;;;;;;;;;27.53;27.72;100695.25;5117801;28;1959;-38
2021/01/07 01:31:26;;;;;;;;;;;;;;;27.32;27.88;100696.84;5117580;28;838;-36
2021/01/07 01:33:51;;;;;;;;;;;;;;;27.71;27.35;100699.50;5117227;28;760;-37
2021/01/07 01:36:22;;;;;;;;;;;;;;;27.58;27.27;100697.38;5117256;28;981;-37
2021/01/07 01:38:47;;;;;;;;;;;;;;;27.36;27.86;100698.16;5117435;28;759;-33
2021/01/07 01:41:12;;;;;;;;;;;;;;;27.70;27.52;100695.94;5117360;28;889;-37
2021/01/07 01:43:38;;;;;;;;;;;;;;;27.98;27.00;100700.63;5117689;28;767;-39
2021/01/07 01:46:03;;;;;;;;;;;;;;;27.42;27.64;100693.03;5117352;28;869;-37
2021/01/07 01:48:28;;;;;;;;;;;;;;;27.31;27.99;100694.34;5116934;28;1897;-37
2021/01/07 01:50:53;;;;;;;;;;;;;;;27.86;27.15;100697.56;5116060;28;807;-37
2021/01/07 01:53:20;;;;;;;;;;;;;;;27.42;27.74;100683.06;5116821;28;1008;-37
2021/01/07 01:55:45;;;;;;;;;;;;;;;27.26;28.10;100681.38;5116593;28;1126;-36
2021/01/07 01:58:14;;;;;;;;;;;;;;;27.80;27.41;100676.72;5116835;28;819;-37
2021/01/07 02:00:39;;;;;;;;;;;;;;;27.71;27.31;100678.69;5116774;28;1039;-37
2021/01/07 02:03:05;;;;;;;;;;;;;;;27.31;28.01;100664.63;5116888;28;830;-38
2021/01/07 02:05:31;;;;;;;;;;;;;;;27.50;27.70;100664.06;5117196;28;858;-38
2021/01/07 02:07:56;;;;;;;;;;;;;;;27.91;27.13;100664.56;5101825;28;1913;-38
2021/01/07 02:10:21;;;;;;;;;;;;;;;27.49;27.51;100658.84;5097373;28;815;-38
2021/01/07 02:12:47;;;;;;;;;;;;;;;27.32;28.03;100659.03;5101078;28;802;-38
2021/01/07 02:15:13;;;;;;;;;;;;;;;27.78;27.33;100657.16;5099503;28;854;-38
2021/01/07 02:17:38;;;;;;;;;;;;;;;27.90;27.23;100662.06;5100219;28;859;-37
2021/01/07 02:20:04;;;;;;;;;;;;;;;27.39;27.62;100654.56;5100737;28;751;-40
2021/01/07 02:22:29;;;;;;;;;;;;;;;27.33;28.05;100659.88;5111919;28;1017;-37
2021/01/07 02:24:54;;;;;;;;;;;;;;;27.90;27.33;100662.91;5120804;28;890;-37
2021/01/07 02:27:20;;;;;;;;;;;;;;;27.43;27.64;100656.88;5121229;28;1909;-38
2021/01/07 02:29:45;;;;;;;;;;;;;;;27.33;27.97;100657.16;5120841;28;842;-36
2021/01/07 02:32:10;;;;;;;;;;;;;;;27.76;27.30;100656.50;5120645;28;806;-39
2021/01/07 02:34:35;;;;;;;;;;;;;;;28.06;26.74;100645.59;5120821;28;850;-38
2021/01/07 02:37:01;;;;;;;;;;;;;;;27.45;27.84;100642.16;5120509;28;922;-37
2021/01/07 02:39:26;;;;;;;;;;;;;;;27.26;28.01;100630.06;5120748;28;833;-39
2021/01/07 02:41:52;;;;;;;;;;;;;;;27.78;27.32;100627.41;5120542;28;755;-37
2021/01/07 02:44:17;;;;;;;;;;;;;;;27.51;27.58;100617.09;5121010;28;814;-37
2021/01/07 02:46:42;;;;;;;;;;;;;;;27.28;28.12;100611.81;5120975;28;788;-37
2021/01/07 02:49:08;;;;;;;;;;;;;;;27.67;27.72;100614.38;5120081;27;1956;-38
2021/01/07 02:51:33;;;;;;;;;;;;;;;27.99;26.98;100614.97;5120373;28;922;-37
2021/01/07 02:54:00;;;;;;;;;;;;;;;27.55;27.67;100616.72;5120607;28;858;-37
2021/01/07 02:56:25;;;;;;;;;;;;;;;27.29;28.16;100615.38;5119926;28;1122;-37
2021/01/07 02:58:50;;;;;;;;;;;;;;;27.80;27.52;100614.56;5120429;28;823;-39
2021/01/07 03:01:15;;;;;;;;;;;;;;;27.54;27.60;100612.34;5120385;28;1124;-39
2021/01/07 03:03:41;;;;;;;;;;;;;;;27.23;28.19;100611.53;5119790;28;894;-37
2021/01/07 03:06:06;;;;;;;;;;;;;;;27.77;27.47;100608.69;5120293;28;771;-38
2021/01/07 03:08:31;;;;;;;;;;;;;;;27.66;27.51;100596.50;5099967;28;1976;-37
2021/01/07 03:10:56;;;;;;;;;;;;;;;27.38;27.98;100589.91;5098949;28;792;-37
2021/01/07 03:13:22;;;;;;;;;;;;;;;27.58;27.76;100587.47;5099855;28;775;-39
2021/01/07 03:15:47;;;;;;;;;;;;;;;27.88;27.51;100578.44;5099634;28;862;-38
2021/01/07 03:18:12;;;;;;;;;;;;;;;27.51;27.83;100578.44;5099343;28;791;-39
2021/01/07 03:20:38;;;;;;;;;;;;;;;27.49;28.06;100578.63;5099339;28;831;-37
2021/01/07 03:23:04;;;;;;;;;;;;;;;27.92;27.15;100570.78;5115404;28;951;-40
2021/01/07 03:25:30;;;;;;;;;;;;;;;27.50;27.71;100568.66;5119308;28;841;-39
2021/01/07 03:27:55;;;;;;;;;;;;;;;27.34;28.31;100562.44;5120106;28;1901;-38
2021/01/07 03:30:20;;;;;;;;;;;;;;;27.89;27.43;100566.63;5119682;28;742;-39
2021/01/07 03:32:46;;;;;;;;;;;;;;;27.53;27.69;100567.47;5119556;28;829;-39
2021/01/07 03:35:11;;;;;;;;;;;;;;;27.38;28.13;100561.06;5119726;28;798;-39
2021/01/07 03:37:36;;;;;;;;;;;;;;;27.74;27.51;100559.38;5119502;28;930;-39
2021/01/07 03:40:02;;;;;;;;;;;;;;;27.74;27.54;100566.69;5119550;28;806;-38
2021/01/07 03:42:27;;;;;;;;;;;;;;;27.38;28.03;100557.50;5119354;28;530;-40
2021/01/07 03:44:53;;;;;;;;;;;;;;;27.52;27.94;100553.09;5119648;28;794;-38
2021/01/07 03:47:18;;;;;;;;;;;;;;;28.01;27.41;100548.00;5119131;27;1906;-38
2021/01/07 03:49:44;;;;;;;;;;;;;;;27.48;27.82;100547.25;5119783;28;783;-40
2021/01/07 03:52:09;;;;;;;;;;;;;;;27.26;28.45;100541.78;5119132;28;954;-37
2021/01/07 03:54:35;;;;;;;;;;;;;;;27.85;27.66;100546.41;5118907;28;762;-36
2021/01/07 03:57:00;;;;;;;;;;;;;;;27.65;27.48;100543.47;5119219;28;1265;-38
2021/01/07 03:59:25;;;;;;;;;;;;;;;27.42;28.06;100530.94;5119185;28;1614;-36
2021/01/07 04:01:51;;;;;;;;;;;;;;;27.73;27.43;100541.50;5102059;28;1009;-37
2021/01/07 04:04:16;;;;;;;;;;;;;;;27.71;27.43;100545.44;5098764;28;798;-38
2021/01/07 04:06:41;;;;;;;;;;;;;;;27.32;28.33;100542.06;5102494;28;930;-37
2021/01/07 04:09:06;;;;;;;;;;;;;;;27.61;27.97;100530.34;5118854;27;1979;-37
2021/01/07 04:11:32;;;;;;;;;;;;;;;27.96;27.48;100531.53;5118952;28;782;-37
2021/01/07 04:13:58;;;;;;;;;;;;;;;27.51;28.11;100527.94;5118791;28;760;-38
2021/01/07 04:16:23;;;;;;;;;;;;;;;27.32;28.43;100529.41;5118707;28;826;-42
2021/01/07 04:18:49;;;;;;;;;;;;;;;27.91;27.47;100534.81;5118826;28;861;-34
2021/01/07 04:21:16;;;;;;;;;;;;;;;27.41;28.10;100543.63;5118558;28;918;-37
2021/01/07 04:23:42;;;;;;;;;;;;;;;27.45;28.21;100535.97;5117087;28;530;-37
2021/01/07 04:26:07;;;;;;;;;;;;;;;27.93;27.43;100527.34;5118501;28;830;-38
2021/01/07 04:28:32;;;;;;;;;;;;;;;27.69;27.94;100523.16;5117234;28;1910;-40
2021/01/07 04:30:57;;;;;;;;;;;;;;;27.27;28.58;100518.34;5118458;28;802;-39
2021/01/07 04:33:23;;;;;;;;;;;;;;;28.02;27.66;100511.84;5117768;28;830;-40
2021/01/07 04:35:48;;;;;;;;;;;;;;;27.68;27.89;100510.63;5118449;28;846;-36
2021/01/07 04:38:13;;;;;;;;;;;;;;;27.04;27.98;100513.91;5118042;28;1005;-41
2021/01/07 04:40:39;;;;;;;;;;;;;;;26.07;28.86;100503.75;5118337;28;846;-40
2021/01/07 04:43:04;;;;;;;;;;;;;;;24.83;29.93;100506.09;5118428;28;790;-37
2021/01/07 04:45:29;;;;;;;;;;;;;;;24.88;29.97;100501.03;5118065;28;767;-38
2021/01/07 04:47:54;;;;;;;;;;;;;;;24.67;30.51;100499.75;5118288;28;1905;-41
2021/01/07 04:50:20;;;;;;;;;;;;;;;25.33;29.63;100496.97;5118283;28;819;-39
2021/01/07 04:52:45;;;;;;;;;;;;;;;25.50;29.22;100505.81;5118001;27;1001;-38
2021/01/07 04:55:10;;;;;;;;;;;;;;;25.19;29.17;100510.19;5117849;28;1162;-38
2021/01/07 04:57:36;;;;;;;;;;;;;;;24.99;29.66;100502.53;5117811;28;827;-38
2021/01/07 05:00:02;;;;;;;;;;;;;;;25.39;29.35;100498.97;5122172;27;1395;-38
2021/01/07 05:02:27;;;;;;;;;;;;;;;25.21;29.41;100491.19;5124947;27;903;-41
2021/01/07 05:04:53;;;;;;;;;;;;;;;25.26;29.39;100497.69;5117952;28;763;-40
2021/01/07 05:07:18;;;;;;;;;;;;;;;24.85;29.71;100489.78;5118064;28;1917;-40
2021/01/07 05:09:43;;;;;;;;;;;;;;;24.50;30.37;100479.28;5117424;28;774;-37
2021/01/07 05:12:09;;;;;;;;;;;;;;;24.87;29.93;100487.75;5120375;27;850;-40
2021/01/07 05:14:43;;;;;;;;;;;;;;;24.62;30.36;100485.16;5138620;27;719;-42
2021/01/07 05:17:09;;;;;;;;;;;;;;;23.34;31.99;100484.44;5138047;27;771;-41
2021/01/07 05:19:38;;;;;;;;;;;;;;;22.48;33.63;100471.81;5138345;27;786;-40
2021/01/07 05:22:03;;;;;;;;;;;;;;;23.16;32.44;100471.13;5130327;27;1001;-42
2021/01/07 05:24:29;;;;;;;;;;;;;;;23.44;31.89;100470.88;5117522;28;936;-41
2021/01/07 05:26:54;;;;;;;;;;;;;;;23.17;32.21;100475.47;5117664;28;869;-41
2021/01/07 05:29:19;;;;;;;;;;;;;;;23.58;31.61;100476.63;5117394;28;1961;-41
2021/01/07 05:31:49;;;;;;;;;;;;;;;23.54;31.37;100488.72;5115662;28;853;-41
2021/01/07 05:34:14;;;;;;;;;;;;;;;23.26;32.16;100483.56;5117522;28;838;-41
2021/01/07 05:36:40;;;;;;;;;;;;;;;23.31;32.03;100486.59;5117153;28;914;-41
2021/01/07 05:39:05;;;;;;;;;;;;;;;23.35;32.02;100480.75;5115844;28;1277;-41
2021/01/07 05:41:31;;;;;;;;;;;;;;;23.66;31.58;100491.91;5116240;28;826;-39
2021/01/07 05:44:03;;;;;;;;;;;;;;;23.88;31.15;100485.03;5116424;28;842;-40
2021/01/07 05:46:31;;;;;;;;;;;;;;;23.78;31.61;100493.25;5116576;28;808;-42
2021/01/07 05:48:57;;;;;;;;;;;;;;;23.75;31.77;100490.91;5117417;28;1902;-41
2021/01/07 05:51:25;;;;;;;;;;;;;;;23.74;31.78;100481.16;5116968;28;930;-41
2021/01/07 05:53:54;;;;;;;;;;;;;;;23.79;31.72;100483.38;5116881;28;745;-41
2021/01/07 05:56:20;;;;;;;;;;;;;;;23.67;31.65;100480.16;5117122;28;1138;-40
2021/01/07 05:58:49;;;;;;;;;;;;;;;23.72;31.54;100473.28;5117282;28;790;-41
2021/01/07 06:01:18;;;;;;;;;;;;;;;23.55;31.86;100479.63;5116631;28;1199;-40
2021/01/07 06:03:47;;;;;;;;;;;;;;;23.63;31.72;100487.72;5116823;28;846;-41
2021/01/07 06:06:13;;;;;;;;;;;;;;;23.57;32.00;100491.06;5116328;28;969;-40
2021/01/07 06:08:38;;;;;;;;;;;;;;;23.84;31.65;100487.22;5095469;28;1965;-41
2021/01/07 06:11:04;;;;;;;;;;;;;;;23.77;31.54;100496.13;5095526;28;860;-41
2021/01/07 06:13:29;;;;;;;;;;;;;;;23.69;31.76;100495.09;5095260;28;834;-39
2021/01/07 06:15:54;;;;;;;;;;;;;;;23.65;31.75;100500.97;5096430;28;882;-41
2021/01/07 06:18:20;;;;;;;;;;;;;;;23.60;31.73;100493.41;5096545;28;791;-38
2021/01/07 06:20:45;;;;;;;;;;;;;;;23.99;31.52;100494.59;5095205;28;1048;-41
2021/01/07 06:23:17;;;;;;;;;;;;;;;23.63;31.73;100490.41;5111745;28;1421;-40
2021/01/07 06:25:42;;;;;;;;;;;;;;;23.56;31.69;100486.69;5116441;28;829;-40
2021/01/07 06:28:07;;;;;;;;;;;;;;;23.13;32.50;100492.94;5116735;28;1905;-40
2021/01/07 06:30:33;;;;;;;;;;;;;;;23.69;31.80;100484.34;5115074;28;1745;-38
2021/01/07 06:33:05;;;;;;;;;;;;;;;23.26;32.38;100481.72;5116730;28;759;-40
2021/01/07 06:35:34;;;;;;;;;;;;;;;22.80;33.31;100474.00;5116717;28;787;-41
2021/01/07 06:37:59;;;;;;;;;;;;;;;23.30;32.90;100476.88;5116236;28;918;-40
2021/01/07 06:40:24;;;;;;;;;;;;;;;23.07;32.74;100486.34;5116623;28;771;-40
2021/01/07 06:42:50;;;;;;;;;;;;;;;23.16;32.68;100491.75;5116744;28;799;-39
2021/01/07 06:45:15;;;;;;;;;;;;;;;23.50;32.33;100484.66;5116523;28;802;-40
2021/01/07 06:47:41;;;;;;;;;;;;;;;23.26;32.38;100492.47;5115077;28;1902;-41
2021/01/07 06:50:07;;;;;;;;;;;;;;;23.48;32.71;100490.19;5116744;28;771;-41
2021/01/07 06:52:42;;;;;;;;;;;;;;;24.21;31.18;100487.75;5116187;28;946;-39
2021/01/07 06:55:09;;;;;;;;;;;;;;;23.87;31.65;100493.28;5116247;28;1134;-41
2021/01/07 06:57:45;;;;;;;;;;;;;;;24.02;31.69;100507.72;5120460;28;807;-40
2021/01/07 07:00:11;;;;;;;;;;;;;;;24.54;30.49;100510.22;5119868;28;1065;-38
2021/01/07 07:02:36;;;;;;;;;;;;;;;24.16;31.79;100508.03;5120255;28;731;-42
2021/01/07 07:05:08;;;;;;;;;;;;;;;24.22;30.94;100515.47;5118851;28;791;-40
2021/01/07 07:07:39;;;;;;;;;;;;;;;24.55;30.82;100504.66;5107478;28;1902;-44
2021/01/07 07:10:31;;;;;;;;;;;;;;;24.35;31.52;100506.88;5099908;28;770;-42
2021/01/07 07:12:56;;;;;;;;;;;;;;;24.56;30.96;100502.78;5091177;28;1380;-41
2021/01/07 07:15:25;;;;;;;;;;;;;;;24.78;30.35;100500.38;5099560;28;851;-42
2021/01/07 07:17:56;;;;;;;;;;;;;;;24.41;30.88;100503.50;5099740;28;822;-37
2021/01/07 07:20:23;;;;;;;;;;;;;;;24.41;30.61;100498.13;5099278;28;962;-35
2021/01/07 07:22:49;;;;;;;;;;;;;;;24.27;31.19;100499.69;5112898;28;943;-40
2021/01/07 07:25:16;;;;;;;;;;;;;;;24.18;30.88;100506.06;5120023;28;775;-36
2021/01/07 07:27:46;;;;;;;;;;;;;;;24.28;30.73;100500.50;5118487;28;1893;-37
2021/01/07 07:30:12;;;;;;;;;;;;;;;24.26;30.83;100497.13;5118616;28;749;-39
2021/01/07 07:32:37;;;;;;;;;;;;;;;24.31;30.72;100494.78;5118637;28;768;-41
2021/01/07 07:35:02;;;;;;;;;;;;;;;24.41;30.45;100490.06;5118130;28;1270;-41
2021/01/07 07:37:28;;;;;;;;;;;;;;;24.48;30.56;100486.69;5117471;28;1176;-41
2021/01/07 07:40:01;;;;;;;;;;;;;;;24.40;30.68;100488.41;5120057;27;742;-38
2021/01/07 07:42:26;;;;;;;;;;;;;;;24.49;30.67;100481.13;5119534;28;798;-40
2021/01/07 07:44:52;;;;;;;;;;;;;;;24.68;30.54;100481.75;5119241;28;820;-38
2021/01/07 07:47:19;;;;;;;;;;;;;;;24.75;30.38;100473.84;5119789;28;1960;-38
2021/01/07 07:49:44;;;;;;;;;;;;;;;24.79;30.54;100472.50;5119338;27;751;-40
2021/01/07 07:52:09;;;;;;;;;;;;;;;24.93;30.35;100471.78;5124714;27;1419;-42
2021/01/07 07:54:35;;;;;;;;;;;;;;;24.92;29.96;100470.09;5127490;27;778;-38
2021/01/07 07:57:00;;;;;;;;;;;;;;;25.09;29.81;100472.69;5119141;28;1206;-39
2021/01/07 07:59:25;;;;;;;;;;;;;;;25.02;30.25;100471.75;5127363;27;771;-37
2021/01/07 08:01:53;;;;;;;;;;;;;;;24.94;30.50;100476.13;5139965;27;1211;-41
2021/01/07 08:04:22;;;;;;;;;;;;;;;24.85;30.58;100470.94;5139266;27;876;-42
2021/01/07 08:06:47;;;;;;;;;;;;;;;24.18;31.50;100474.66;5133154;27;976;-47
2021/01/07 08:09:14;;;;;;;;;;;;;;;23.65;32.45;100484.84;5118543;28;1913;-40
2021/01/07 08:11:39;;;;;;;;;;;;;;;25.15;30.31;100496.25;5118879;28;828;-40
2021/01/07 08:14:05;;;;;;;;;;;;;;;25.62;29.54;100493.63;5117849;28;725;-41
2021/01/07 08:16:30;;;;;;;;;;;;;;;25.39;29.71;100478.25;5119262;28;874;-38
2021/01/07 08:18:55;;;;;;;;;;;;;;;25.32;30.13;100466.53;5118971;28;775;-39
2021/01/07 08:21:21;;;;;;;;;;;;;;;25.22;30.06;100474.84;5118396;28;926;-39
2021/01/07 08:23:46;;;;;;;;;;;;;;;25.39;29.71;100486.34;5118748;28;782;-40
2021/01/07 08:26:27;;;;;;;;;;;;;;;25.28;30.08;100482.22;5118588;28;775;-40
2021/01/07 08:28:52;;;;;;;;;;;;;;;25.59;29.95;100483.19;5116898;28;1966;-39
2021/01/07 08:31:19;;;;;;;;;;;;;;;25.47;30.15;100479.22;5118509;28;1197;-36
2021/01/07 08:33:45;;;;;;;;;;;;;;;25.63;29.91;100478.31;5118454;28;763;-37
2021/01/07 08:36:11;;;;;;;;;;;;;;;25.84;29.75;100474.13;5116626;28;954;-39
2021/01/07 08:38:36;;;;;;;;;;;;;;;25.69;29.96;100464.13;5116515;28;902;-38
2021/01/07 08:41:15;;;;;;;;;;;;;;;25.75;29.89;100459.88;5118676;28;858;-38
2021/01/07 08:43:40;;;;;;;;;;;;;;;25.87;29.70;100460.28;5118279;28;767;-35
2021/01/07 08:46:22;;;;;;;;;;;;;;;25.92;30.52;100456.00;5118167;28;822;-38
2021/01/07 08:48:58;;;;;;;;;;;;;;;26.01;30.09;100461.31;5118236;28;1905;-41
2021/01/07 08:51:23;;;;;;;;;;;;;;;26.25;29.46;100468.34;5117824;28;974;-42
2021/01/07 08:53:55;;;;;;;;;;;;;;;26.24;29.87;100468.53;5117698;28;494;-42
2021/01/07 08:56:30;;;;;;;;;;;;;;;26.28;29.90;100472.53;5118139;28;1201;-41
2021/01/07 08:59:14;;;;;;;;;;;;;;;26.48;29.23;100459.38;5117826;28;755;-40
2021/01/07 09:01:39;;;;;;;;;;;;;;;26.24;29.29;100461.28;5117902;28;1399;-41
2021/01/07 09:04:05;;;;;;;;;;;;;;;26.24;29.16;100463.97;5118113;28;845;-41
2021/01/07 09:06:30;;;;;;;;;;;;;;;26.24;29.13;100461.28;5112920;28;1487;-37
2021/01/07 09:08:55;;;;;;;;;;;;;;;26.13;29.15;100454.47;5104241;28;1905;-36
2021/01/07 09:11:27;;;;;;;;;;;;;;;26.08;29.39;100456.88;5108607;28;738;-36
2021/01/07 09:14:03;;;;;;;;;;;;;;;26.25;29.85;100454.88;5117811;28;802;-39
2021/01/07 09:16:28;;;;;;;;;;;;;;;26.30;29.77;100443.53;5117952;28;791;-35
2021/01/07 09:19:06;;;;;;;;;;;;;;;26.15;28.93;100438.13;5117885;28;890;-39
2021/01/07 09:21:33;;;;;;;;;;;;;;;26.16;29.33;100437.09;5117480;28;925;-38
2021/01/07 09:23:58;;;;;;;;;;;;;;;26.35;28.78;100441.16;5117352;28;858;-43
2021/01/07 09:26:30;;;;;;;;;;;;;;;26.29;29.23;100444.56;5117616;28;822;-40
2021/01/07 09:28:55;;;;;;;;;;;;;;;26.02;28.96;100430.66;5117392;27;1964;-41
2021/01/07 09:31:20;;;;;;;;;;;;;;;26.39;27.96;100422.75;5116827;28;819;-36
2021/01/07 09:33:46;;;;;;;;;;;;;;;26.00;27.65;100425.47;5117301;28;910;-43
2021/01/07 09:36:11;;;;;;;;;;;;;;;25.72;28.00;100417.13;5116442;28;819;-41
2021/01/07 09:38:36;;;;;;;;;;;;;;;26.10;27.84;100424.34;5097007;28;811;-38
2021/01/07 09:41:01;;;;;;;;;;;;;;;25.78;27.79;100411.00;5097050;28;825;-34
2021/01/07 09:43:27;;;;;;;;;;;;;;;25.76;28.04;100421.13;5096618;28;901;-37
2021/01/07 09:45:52;;;;;;;;;;;;;;;26.15;27.13;100417.41;5096935;28;798;-41
2021/01/07 09:48:17;;;;;;;;;;;;;;;26.08;27.07;100411.06;5096830;28;1967;-41
2021/01/07 09:50:43;;;;;;;;;;;;;;;25.94;27.48;100404.66;5096758;28;771;-41
2021/01/07 09:53:08;;;;;;;;;;;;;;;25.97;27.83;100400.72;5113159;28;942;-42
2021/01/07 09:55:33;;;;;;;;;;;;;;;25.99;27.94;100399.53;5117060;28;1198;-42
2021/01/07 09:57:58;;;;;;;;;;;;;;;25.81;27.90;100389.09;5116811;28;853;-42
2021/01/07 10:00:24;;;;;;;;;;;;;;;26.08;27.80;100376.03;5116912;28;1285;-43
2021/01/07 10:02:50;;;;;;;;;;;;;;;25.97;27.57;100380.03;5117314;28;787;-42
2021/01/07 10:05:15;;;;;;;;;;;;;;;25.82;28.13;100385.38;5111360;28;1171;-38
2021/01/07 10:07:40;;;;;;;;;;;;;;;26.17;27.69;100384.88;5110925;28;1980;-36
2021/01/07 10:10:06;;;;;;;;;;;;;;;26.09;27.32;100374.16;5116726;28;859;-37
2021/01/07 10:12:31;;;;;;;;;;;;;;;25.84;27.63;100364.47;5116687;28;708;-42
2021/01/07 10:14:56;;;;;;;;;;;;;;;25.97;27.71;100380.03;5117026;28;764;-43
2021/01/07 10:17:22;;;;;;;;;;;;;;;25.87;27.66;100369.50;5117183;28;776;-42
2021/01/07 10:19:47;;;;;;;;;;;;;;;25.82;28.00;100360.28;5116606;28;1013;-40
2021/01/07 10:22:14;;;;;;;;;;;;;;;26.28;27.02;100362.81;5107875;28;1012;-41
2021/01/07 10:24:40;;;;;;;;;;;;;;;25.74;27.77;100370.13;5096330;28;830;-43
2021/01/07 10:27:05;;;;;;;;;;;;;;;25.59;28.12;100371.94;5096526;28;783;-40
2021/01/07 10:29:34;;;;;;;;;;;;;;;26.13;27.17;100364.69;5096741;28;1902;-42
2021/01/07 10:32:12;;;;;;;;;;;;;;;25.82;27.28;100350.34;5099544;28;569;-42
2021/01/07 10:34:38;;;;;;;;;;;;;;;25.58;27.69;100365.69;5100318;28;810;-40
2021/01/07 10:37:04;;;;;;;;;;;;;;;26.19;26.63;100363.97;5107700;28;994;-41
2021/01/07 10:39:30;;;;;;;;;;;;;;;25.59;26.92;100353.88;5121244;28;759;-37
2021/01/07 10:41:56;;;;;;;;;;;;;;;25.85;26.90;100355.38;5119979;28;893;-39
2021/01/07 10:44:21;;;;;;;;;;;;;;;26.14;26.49;100352.88;5109645;28;1479;-39
2021/01/07 10:46:47;;;;;;;;;;;;;;;25.77;26.94;100350.91;5101070;27;793;-39
2021/01/07 10:49:13;;;;;;;;;;;;;;;25.62;27.12;100358.09;5109559;28;1914;-39
2021/01/07 10:52:08;;;;;;;;;;;;;;;25.65;27.39;100347.81;5101524;28;859;-42
2021/01/07 10:54:48;;;;;;;;;;;;;;;25.59;27.85;100337.72;5092742;28;1281;-42
2021/01/07 10:57:20;;;;;;;;;;;;;;;25.78;27.71;100344.50;5117305;28;951;-35
2021/01/07 11:00:04;;;;;;;;;;;;;;;26.10;26.50;100343.50;5120164;28;811;-40
2021/01/07 11:02:44;;;;;;;;;;;;;;;25.92;27.03;100342.00;5120503;28;760;-42
2021/01/07 11:05:10;;;;;;;;;;;;;;;25.59;27.29;100347.69;5120125;28;775;-42
2021/01/07 11:07:54;;;;;;;;;;;;;;;25.76;27.24;100341.13;5107628;28;1973;-43
2021/01/07 11:10:19;;;;;;;;;;;;;;;25.57;27.11;100339.78;5099288;28;870;-40
2021/01/07 11:13:04;;;;;;;;;;;;;;;25.35;27.43;100336.09;5099750;28;814;-33
2021/01/07 11:15:30;;;;;;;;;;;;;;;25.66;26.59;100333.31;5099220;28;1544;-33
2021/01/07 11:18:02;;;;;;;;;;;;;;;25.82;26.42;100350.34;5097992;28;815;-33
2021/01/07 11:20:27;;;;;;;;;;;;;;;25.44;26.37;100352.00;5098340;28;835;-33
2021/01/07 11:22:53;;;;;;;;;;;;;;;25.72;25.79;100347.94;5112738;28;1017;-43
2021/01/07 11:25:19;;;;;;;;;;;;;;;25.42;26.04;100358.59;5119671;28;762;-33
2021/01/07 11:27:44;;;;;;;;;;;;;;;25.34;26.22;100343.34;5118531;28;1897;-34
2021/01/07 11:30:09;;;;;;;;;;;;;;;25.09;26.04;100346.22;5118721;28;798;-34
2021/01/07 11:32:38;;;;;;;;;;;;;;;25.01;26.43;100340.88;5119208;28;754;-34
2021/01/07 11:35:06;;;;;;;;;;;;;;;25.07;26.07;100337.50;5119396;28;826;-38
2021/01/07 11:37:37;;;;;;;;;;;;;;;25.15;26.28;100339.28;5119226;28;969;-38
2021/01/07 11:40:06;;;;;;;;;;;;;;;25.39;26.31;100348.19;5119701;28;767;-35
2021/01/07 11:42:50;;;;;;;;;;;;;;;25.53;26.16;100354.63;5119435;27;786;-39
2021/01/07 11:45:21;;;;;;;;;;;;;;;25.43;26.37;100369.19;5119255;28;1445;-39
2021/01/07 11:47:52;;;;;;;;;;;;;;;25.74;26.15;100372.00;5118765;28;1905;-36
2021/01/07 11:50:17;;;;;;;;;;;;;;;26.05;26.36;100395.25;5119141;28;842;-33
2021/01/07 11:52:43;;;;;;;;;;;;;;;26.26;26.89;100391.81;5118137;28;954;-36
2021/01/07 11:55:10;;;;;;;;;;;;;;;26.21;27.03;100391.53;5119134;28;1118;-37
2021/01/07 11:57:35;;;;;;;;;;;;;;;26.14;27.68;100396.84;5119094;28;874;-39
2021/01/07 12:00:01;;;;;;;;;;;;;;;26.12;27.26;100398.91;5119293;28;767;-35
2021/01/07 12:02:26;;;;;;;;;;;;;;;26.07;27.82;100400.47;5117235;28;1308;-39
2021/01/07 12:04:52;;;;;;;;;;;;;;;26.20;27.59;100394.44;5105542;28;891;-33
2021/01/07 12:07:36;;;;;;;;;;;;;;;26.34;27.52;100401.69;5095656;28;967;-41
2021/01/07 12:10:01;;;;;;;;;;;;;;;26.37;27.74;100417.53;5098206;28;798;-35
2021/01/07 12:12:28;;;;;;;;;;;;;;;26.32;27.78;100438.78;5098545;28;830;-34
2021/01/07 12:14:54;;;;;;;;;;;;;;;26.35;27.84;100437.59;5116318;28;872;-39
2021/01/07 12:17:19;;;;;;;;;;;;;;;26.28;28.03;100432.94;5117421;28;781;-37
2021/01/07 12:19:44;;;;;;;;;;;;;;;26.25;27.98;100432.47;5119036;28;773;-38
2021/01/07 12:22:14;;;;;;;;;;;;;;;26.30;28.02;100448.91;5118651;28;954;-40
2021/01/07 12:24:39;;;;;;;;;;;;;;;26.24;28.10;100466.66;5118467;28;801;-39
2021/01/07 12:27:06;;;;;;;;;;;;;;;26.22;28.01;100471.44;5117704;28;830;-39
2021/01/07 12:29:31;;;;;;;;;;;;;;;26.23;28.12;100478.47;5118513;28;1969;-38
2021/01/07 12:31:57;;;;;;;;;;;;;;;26.25;28.30;100481.84;5117418;28;818;-40
2021/01/07 12:34:41;;;;;;;;;;;;;;;26.19;26.88;100474.50;5118878;28;780;-41
2021/01/07 12:37:07;;;;;;;;;;;;;;;25.99;26.41;100483.06;5118352;28;906;-42
2021/01/07 12:39:41;;;;;;;;;;;;;;;25.82;26.56;100495.00;5118378;28;782;-42
2021/01/07 12:42:11;;;;;;;;;;;;;;;25.83;26.78;100499.38;5118458;28;811;-38
2021/01/07 12:44:37;;;;;;;;;;;;;;;25.66;26.35;100521.88;5118398;28;824;-39
2021/01/07 12:47:03;;;;;;;;;;;;;;;25.30;26.22;100519.72;5118178;28;834;-42
2021/01/07 12:49:28;;;;;;;;;;;;;;;25.03;26.15;100528.09;5118069;28;1910;-39
2021/01/07 12:51:53;;;;;;;;;;;;;;;25.27;26.25;100520.06;5117867;28;902;-41
2021/01/07 12:54:19;;;;;;;;;;;;;;;25.04;25.66;100532.44;5116358;28;751;-40